aviador You're here:

UGTB Decoded Metar

TBILISI/NOVO-AL in GEORGIA
Report Time2017-07-26 06:30:00
UTC Time2017-07-26 06:37:05
Flight Rules vfr VFR
WindVRB at 05 kt
Visibility9999 m
Phenomena:N/A
Clouds:N/A
Expected CloudBase > 4,800 ft AGL from Temp-Dew spread
CeilingNone
Temp29°C (ISA +17)
Dew Point17°C (48% RH)
Heat Index29.4°C
QNH1010 hPa
Density Alt3,960 ft
Elevation1,624 ft
Report Wrong Elevation
Raw Report
METAR UGTB 260630Z VRB05KT CAVOK 29/17 Q1010 R31L/CLRD70 NOSIG=

Extra information for UGTB:More info

Metar Taf Metar & Taf Last 4 Metars F.Rules Stats Wind Profile Meteogram Temp Stats Airport Information Weather charts Add Link Nearby VenuesMetar ALERT Operation Metar Decoded Social comments